sensor_id;sensor_type;location;lat;lon;timestamp;P1;durP1;ratioP1;P2;durP2;ratioP2
39750;SDS011;37579;51.074;17.004;2023-10-19T00:02:06;5.78;;;4.30;;
39750;SDS011;37579;51.074;17.004;2023-10-19T00:04:33;5.72;;;3.90;;
39750;SDS011;37579;51.074;17.004;2023-10-19T00:07:04;5.28;;;3.90;;
39750;SDS011;37579;51.074;17.004;2023-10-19T00:09:33;5.47;;;3.78;;
39750;SDS011;37579;51.074;17.004;2023-10-19T00:12:03;5.65;;;3.80;;
39750;SDS011;37579;51.074;17.004;2023-10-19T00:14:31;4.95;;;3.78;;
39750;SDS011;37579;51.074;17.004;2023-10-19T00:16:57;5.35;;;4.10;;
39750;SDS011;37579;51.074;17.004;2023-10-19T00:19:46;5.53;;;4.07;;
39750;SDS011;37579;51.074;17.004;2023-10-19T00:22:41;4.70;;;3.72;;
39750;SDS011;37579;51.074;17.004;2023-10-19T00:25:07;4.68;;;3.90;;
39750;SDS011;37579;51.074;17.004;2023-10-19T00:27:38;6.78;;;4.15;;
39750;SDS011;37579;51.074;17.004;2023-10-19T00:30:05;6.57;;;4.78;;
39750;SDS011;37579;51.074;17.004;2023-10-19T00:32:32;6.28;;;3.97;;
39750;SDS011;37579;51.074;17.004;2023-10-19T00:35:04;5.93;;;4.07;;
39750;SDS011;37579;51.074;17.004;2023-10-19T00:37:46;5.60;;;4.45;;
39750;SDS011;37579;51.074;17.004;2023-10-19T00:40:13;7.05;;;4.47;;
39750;SDS011;37579;51.074;17.004;2023-10-19T00:42:44;5.65;;;4.35;;
39750;SDS011;37579;51.074;17.004;2023-10-19T00:45:11;5.68;;;4.03;;
39750;SDS011;37579;51.074;17.004;2023-10-19T00:47:38;6.38;;;4.47;;
39750;SDS011;37579;51.074;17.004;2023-10-19T00:50:08;6.00;;;4.22;;
39750;SDS011;37579;51.074;17.004;2023-10-19T00:52:42;5.90;;;4.07;;
39750;SDS011;37579;51.074;17.004;2023-10-19T00:55:15;6.90;;;4.35;;
39750;SDS011;37579;51.074;17.004;2023-10-19T00:57:44;5.63;;;3.95;;
39750;SDS011;37579;51.074;17.004;2023-10-19T01:00:14;4.78;;;3.75;;
39750;SDS011;37579;51.074;17.004;2023-10-19T01:03:00;5.78;;;4.05;;
39750;SDS011;37579;51.074;17.004;2023-10-19T01:05:29;5.40;;;3.70;;
39750;SDS011;37579;51.074;17.004;2023-10-19T01:08:03;5.32;;;3.92;;
39750;SDS011;37579;51.074;17.004;2023-10-19T01:10:44;5.65;;;4.30;;
39750;SDS011;37579;51.074;17.004;2023-10-19T01:13:11;6.18;;;4.10;;
39750;SDS011;37579;51.074;17.004;2023-10-19T01:15:37;6.22;;;4.22;;
39750;SDS011;37579;51.074;17.004;2023-10-19T01:18:04;5.88;;;4.00;;
39750;SDS011;37579;51.074;17.004;2023-10-19T01:20:32;4.80;;;4.00;;
39750;SDS011;37579;51.074;17.004;2023-10-19T01:23:13;6.13;;;4.22;;
39750;SDS011;37579;51.074;17.004;2023-10-19T01:25:46;5.60;;;4.32;;
39750;SDS011;37579;51.074;17.004;2023-10-19T01:28:16;5.78;;;4.22;;
39750;SDS011;37579;51.074;17.004;2023-10-19T01:30:42;5.35;;;3.85;;
39750;SDS011;37579;51.074;17.004;2023-10-19T01:33:16;5.43;;;3.67;;
39750;SDS011;37579;51.074;17.004;2023-10-19T01:38:35;4.95;;;3.70;;
39750;SDS011;37579;51.074;17.004;2023-10-19T01:41:02;6.22;;;3.95;;
39750;SDS011;37579;51.074;17.004;2023-10-19T01:43:38;5.38;;;4.00;;
39750;SDS011;37579;51.074;17.004;2023-10-19T01:46:05;5.95;;;3.88;;
39750;SDS011;37579;51.074;17.004;2023-10-19T01:48:41;4.72;;;3.70;;
39750;SDS011;37579;51.074;17.004;2023-10-19T01:51:09;6.13;;;4.07;;
39750;SDS011;37579;51.074;17.004;2023-10-19T01:53:36;6.15;;;4.18;;
39750;SDS011;37579;51.074;17.004;2023-10-19T01:56:08;5.53;;;4.33;;
39750;SDS011;37579;51.074;17.004;2023-10-19T01:58:35;5.45;;;3.88;;
39750;SDS011;37579;51.074;17.004;2023-10-19T02:01:05;6.53;;;4.50;;
39750;SDS011;37579;51.074;17.004;2023-10-19T02:03:35;5.60;;;3.80;;
39750;SDS011;37579;51.074;17.004;2023-10-19T02:06:02;5.45;;;3.95;;
39750;SDS011;37579;51.074;17.004;2023-10-19T02:11:25;5.65;;;3.78;;
39750;SDS011;37579;51.074;17.004;2023-10-19T02:13:53;5.25;;;3.83;;
39750;SDS011;37579;51.074;17.004;2023-10-19T02:16:20;5.85;;;4.07;;
39750;SDS011;37579;51.074;17.004;2023-10-19T02:18:51;5.22;;;3.90;;
39750;SDS011;37579;51.074;17.004;2023-10-19T02:21:18;5.50;;;3.80;;
39750;SDS011;37579;51.074;17.004;2023-10-19T02:23:48;6.05;;;4.10;;
39750;SDS011;37579;51.074;17.004;2023-10-19T02:26:18;5.68;;;3.92;;
39750;SDS011;37579;51.074;17.004;2023-10-19T02:28:48;5.32;;;4.30;;
39750;SDS011;37579;51.074;17.004;2023-10-19T02:31:16;4.68;;;3.65;;
39750;SDS011;37579;51.074;17.004;2023-10-19T02:33:52;5.55;;;3.85;;
39750;SDS011;37579;51.074;17.004;2023-10-19T02:36:25;5.50;;;4.25;;
39750;SDS011;37579;51.074;17.004;2023-10-19T02:38:55;5.15;;;3.80;;
39750;SDS011;37579;51.074;17.004;2023-10-19T02:41:24;4.90;;;3.85;;
39750;SDS011;37579;51.074;17.004;2023-10-19T02:43:52;5.95;;;4.18;;
39750;SDS011;37579;51.074;17.004;2023-10-19T02:46:33;5.90;;;3.88;;
39750;SDS011;37579;51.074;17.004;2023-10-19T02:49:03;5.43;;;3.90;;
39750;SDS011;37579;51.074;17.004;2023-10-19T02:51:34;5.13;;;3.85;;
39750;SDS011;37579;51.074;17.004;2023-10-19T02:54:02;5.30;;;4.15;;
39750;SDS011;37579;51.074;17.004;2023-10-19T02:56:33;5.97;;;4.18;;
39750;SDS011;37579;51.074;17.004;2023-10-19T02:59:04;5.97;;;4.32;;
39750;SDS011;37579;51.074;17.004;2023-10-19T03:01:31;7.30;;;4.45;;
39750;SDS011;37579;51.074;17.004;2023-10-19T03:04:01;4.97;;;3.80;;
39750;SDS011;37579;51.074;17.004;2023-10-19T03:06:28;5.13;;;3.85;;
39750;SDS011;37579;51.074;17.004;2023-10-19T03:09:04;5.70;;;4.32;;
39750;SDS011;37579;51.074;17.004;2023-10-19T03:11:38;4.97;;;4.00;;
39750;SDS011;37579;51.074;17.004;2023-10-19T03:14:06;5.15;;;4.03;;
39750;SDS011;37579;51.074;17.004;2023-10-19T03:16:33;5.40;;;4.00;;
39750;SDS011;37579;51.074;17.004;2023-10-19T03:19:00;5.95;;;4.15;;
39750;SDS011;37579;51.074;17.004;2023-10-19T03:21:26;4.80;;;3.90;;
39750;SDS011;37579;51.074;17.004;2023-10-19T03:23:53;5.55;;;3.97;;
39750;SDS011;37579;51.074;17.004;2023-10-19T03:26:22;5.50;;;3.63;;
39750;SDS011;37579;51.074;17.004;2023-10-19T03:29:02;5.13;;;3.67;;
39750;SDS011;37579;51.074;17.004;2023-10-19T03:31:33;5.53;;;4.20;;
39750;SDS011;37579;51.074;17.004;2023-10-19T03:34:08;5.93;;;3.80;;
39750;SDS011;37579;51.074;17.004;2023-10-19T03:36:35;5.55;;;3.78;;
39750;SDS011;37579;51.074;17.004;2023-10-19T03:39:02;4.93;;;4.10;;
39750;SDS011;37579;51.074;17.004;2023-10-19T03:41:41;5.45;;;4.10;;
39750;SDS011;37579;51.074;17.004;2023-10-19T03:44:08;5.53;;;3.65;;
39750;SDS011;37579;51.074;17.004;2023-10-19T03:47:04;5.47;;;4.07;;
39750;SDS011;37579;51.074;17.004;2023-10-19T03:49:30;5.07;;;3.75;;
39750;SDS011;37579;51.074;17.004;2023-10-19T03:51:59;7.28;;;4.25;;
39750;SDS011;37579;51.074;17.004;2023-10-19T03:54:35;5.78;;;4.00;;
39750;SDS011;37579;51.074;17.004;2023-10-19T03:57:04;5.63;;;4.05;;
39750;SDS011;37579;51.074;17.004;2023-10-19T03:59:40;6.50;;;4.22;;
39750;SDS011;37579;51.074;17.004;2023-10-19T04:02:07;4.78;;;3.85;;
39750;SDS011;37579;51.074;17.004;2023-10-19T04:04:41;5.00;;;3.47;;
39750;SDS011;37579;51.074;17.004;2023-10-19T04:07:17;5.25;;;4.35;;
39750;SDS011;37579;51.074;17.004;2023-10-19T04:09:47;4.90;;;3.78;;
39750;SDS011;37579;51.074;17.004;2023-10-19T04:12:29;5.88;;;4.20;;
39750;SDS011;37579;51.074;17.004;2023-10-19T04:14:56;4.95;;;3.70;;
39750;SDS011;37579;51.074;17.004;2023-10-19T04:17:23;6.38;;;4.30;;
39750;SDS011;37579;51.074;17.004;2023-10-19T04:19:50;4.95;;;3.97;;
39750;SDS011;37579;51.074;17.004;2023-10-19T04:22:20;4.88;;;4.03;;
39750;SDS011;37579;51.074;17.004;2023-10-19T04:24:52;4.65;;;3.75;;
39750;SDS011;37579;51.074;17.004;2023-10-19T04:27:18;5.40;;;4.00;;
39750;SDS011;37579;51.074;17.004;2023-10-19T04:29:48;5.88;;;4.20;;
39750;SDS011;37579;51.074;17.004;2023-10-19T04:32:15;5.80;;;3.70;;
39750;SDS011;37579;51.074;17.004;2023-10-19T04:34:49;5.95;;;4.65;;
39750;SDS011;37579;51.074;17.004;2023-10-19T04:37:15;6.28;;;4.38;;
39750;SDS011;37579;51.074;17.004;2023-10-19T04:39:44;4.75;;;3.53;;
39750;SDS011;37579;51.074;17.004;2023-10-19T04:42:10;5.60;;;3.90;;
39750;SDS011;37579;51.074;17.004;2023-10-19T04:44:37;5.30;;;3.80;;
39750;SDS011;37579;51.074;17.004;2023-10-19T04:47:03;5.35;;;3.65;;
39750;SDS011;37579;51.074;17.004;2023-10-19T04:49:29;5.60;;;3.60;;
39750;SDS011;37579;51.074;17.004;2023-10-19T04:51:55;4.10;;;3.47;;
39750;SDS011;37579;51.074;17.004;2023-10-19T04:54:21;4.60;;;3.75;;
39750;SDS011;37579;51.074;17.004;2023-10-19T04:56:48;5.18;;;3.70;;
39750;SDS011;37579;51.074;17.004;2023-10-19T04:59:15;5.50;;;3.95;;
39750;SDS011;37579;51.074;17.004;2023-10-19T05:01:41;5.20;;;3.67;;
39750;SDS011;37579;51.074;17.004;2023-10-19T05:04:07;5.85;;;3.70;;
39750;SDS011;37579;51.074;17.004;2023-10-19T05:06:33;5.20;;;4.07;;
39750;SDS011;37579;51.074;17.004;2023-10-19T05:09:00;10.20;;;4.70;;
39750;SDS011;37579;51.074;17.004;2023-10-19T05:11:28;7.38;;;4.90;;
39750;SDS011;37579;51.074;17.004;2023-10-19T05:13:54;6.18;;;4.15;;
39750;SDS011;37579;51.074;17.004;2023-10-19T05:16:20;6.93;;;4.40;;
39750;SDS011;37579;51.074;17.004;2023-10-19T05:18:46;5.63;;;3.90;;
39750;SDS011;37579;51.074;17.004;2023-10-19T05:21:12;7.22;;;4.88;;
39750;SDS011;37579;51.074;17.004;2023-10-19T05:23:38;6.15;;;3.97;;
39750;SDS011;37579;51.074;17.004;2023-10-19T05:26:05;5.80;;;4.00;;
39750;SDS011;37579;51.074;17.004;2023-10-19T05:28:31;5.53;;;3.72;;
39750;SDS011;37579;51.074;17.004;2023-10-19T05:30:58;6.43;;;4.00;;
39750;SDS011;37579;51.074;17.004;2023-10-19T05:33:24;5.85;;;4.30;;
39750;SDS011;37579;51.074;17.004;2023-10-19T05:35:51;5.20;;;4.13;;
39750;SDS011;37579;51.074;17.004;2023-10-19T05:38:17;6.45;;;4.30;;
39750;SDS011;37579;51.074;17.004;2023-10-19T05:40:47;6.10;;;4.18;;
39750;SDS011;37579;51.074;17.004;2023-10-19T05:43:15;7.25;;;4.35;;
39750;SDS011;37579;51.074;17.004;2023-10-19T05:45:42;6.28;;;4.10;;
39750;SDS011;37579;51.074;17.004;2023-10-19T05:48:08;6.18;;;4.43;;
39750;SDS011;37579;51.074;17.004;2023-10-19T05:50:35;6.47;;;4.57;;
39750;SDS011;37579;51.074;17.004;2023-10-19T05:53:04;6.68;;;4.45;;
39750;SDS011;37579;51.074;17.004;2023-10-19T05:55:31;7.80;;;4.65;;
39750;SDS011;37579;51.074;17.004;2023-10-19T05:57:57;8.20;;;4.63;;
39750;SDS011;37579;51.074;17.004;2023-10-19T06:00:23;9.13;;;4.68;;
39750;SDS011;37579;51.074;17.004;2023-10-19T06:02:51;6.40;;;4.28;;
39750;SDS011;37579;51.074;17.004;2023-10-19T06:05:18;9.48;;;5.43;;
39750;SDS011;37579;51.074;17.004;2023-10-19T06:07:44;8.13;;;4.82;;
39750;SDS011;37579;51.074;17.004;2023-10-19T06:10:12;8.13;;;4.78;;
39750;SDS011;37579;51.074;17.004;2023-10-19T06:12:41;6.65;;;4.75;;
39750;SDS011;37579;51.074;17.004;2023-10-19T06:15:09;7.13;;;4.93;;
39750;SDS011;37579;51.074;17.004;2023-10-19T06:17:36;9.10;;;4.57;;
39750;SDS011;37579;51.074;17.004;2023-10-19T06:20:04;6.07;;;4.75;;
39750;SDS011;37579;51.074;17.004;2023-10-19T06:22:30;7.68;;;4.63;;
39750;SDS011;37579;51.074;17.004;2023-10-19T06:24:56;6.88;;;4.40;;
39750;SDS011;37579;51.074;17.004;2023-10-19T06:27:22;8.52;;;4.60;;
39750;SDS011;37579;51.074;17.004;2023-10-19T06:29:49;7.20;;;5.03;;
39750;SDS011;37579;51.074;17.004;2023-10-19T06:32:15;8.68;;;5.20;;
39750;SDS011;37579;51.074;17.004;2023-10-19T06:34:41;6.10;;;4.57;;
39750;SDS011;37579;51.074;17.004;2023-10-19T06:37:07;6.07;;;4.40;;
39750;SDS011;37579;51.074;17.004;2023-10-19T06:39:35;7.55;;;4.38;;
39750;SDS011;37579;51.074;17.004;2023-10-19T06:42:06;8.13;;;4.80;;
39750;SDS011;37579;51.074;17.004;2023-10-19T06:44:35;6.00;;;4.40;;
39750;SDS011;37579;51.074;17.004;2023-10-19T06:47:01;9.13;;;4.50;;
39750;SDS011;37579;51.074;17.004;2023-10-19T06:49:29;10.35;;;4.70;;
39750;SDS011;37579;51.074;17.004;2023-10-19T06:51:55;7.30;;;4.50;;
39750;SDS011;37579;51.074;17.004;2023-10-19T06:54:21;6.47;;;4.35;;
39750;SDS011;37579;51.074;17.004;2023-10-19T06:56:47;6.85;;;4.13;;
39750;SDS011;37579;51.074;17.004;2023-10-19T06:59:14;6.25;;;4.60;;
39750;SDS011;37579;51.074;17.004;2023-10-19T07:01:40;6.43;;;3.90;;
39750;SDS011;37579;51.074;17.004;2023-10-19T07:04:06;7.03;;;3.83;;
39750;SDS011;37579;51.074;17.004;2023-10-19T07:06:32;7.30;;;4.78;;
39750;SDS011;37579;51.074;17.004;2023-10-19T07:08:58;8.40;;;5.07;;
39750;SDS011;37579;51.074;17.004;2023-10-19T07:11:24;7.50;;;4.47;;
39750;SDS011;37579;51.074;17.004;2023-10-19T07:13:50;6.65;;;4.75;;
39750;SDS011;37579;51.074;17.004;2023-10-19T07:16:16;8.48;;;4.95;;
39750;SDS011;37579;51.074;17.004;2023-10-19T07:18:45;8.07;;;5.53;;
39750;SDS011;37579;51.074;17.004;2023-10-19T07:21:12;8.55;;;5.35;;
39750;SDS011;37579;51.074;17.004;2023-10-19T07:23:38;6.93;;;4.80;;
39750;SDS011;37579;51.074;17.004;2023-10-19T07:26:05;14.20;;;6.72;;
39750;SDS011;37579;51.074;17.004;2023-10-19T07:28:31;14.25;;;6.68;;
39750;SDS011;37579;51.074;17.004;2023-10-19T07:30:58;13.60;;;6.80;;
39750;SDS011;37579;51.074;17.004;2023-10-19T07:33:27;13.43;;;7.85;;
39750;SDS011;37579;51.074;17.004;2023-10-19T07:35:53;19.67;;;7.95;;
39750;SDS011;37579;51.074;17.004;2023-10-19T07:38:23;16.23;;;7.68;;
39750;SDS011;37579;51.074;17.004;2023-10-19T07:40:50;20.85;;;8.93;;
39750;SDS011;37579;51.074;17.004;2023-10-19T07:43:20;19.42;;;8.55;;
39750;SDS011;37579;51.074;17.004;2023-10-19T07:45:47;17.45;;;8.43;;
39750;SDS011;37579;51.074;17.004;2023-10-19T07:48:14;20.08;;;9.13;;
39750;SDS011;37579;51.074;17.004;2023-10-19T07:50:40;18.48;;;10.48;;
39750;SDS011;37579;51.074;17.004;2023-10-19T07:53:07;23.15;;;9.93;;
39750;SDS011;37579;51.074;17.004;2023-10-19T07:55:34;26.88;;;10.80;;
39750;SDS011;37579;51.074;17.004;2023-10-19T07:58:01;18.40;;;10.70;;
39750;SDS011;37579;51.074;17.004;2023-10-19T08:00:31;18.20;;;9.82;;
39750;SDS011;37579;51.074;17.004;2023-10-19T08:03:01;18.20;;;9.15;;
39750;SDS011;37579;51.074;17.004;2023-10-19T08:05:27;18.92;;;10.50;;
39750;SDS011;37579;51.074;17.004;2023-10-19T08:07:53;20.00;;;10.75;;
39750;SDS011;37579;51.074;17.004;2023-10-19T08:10:22;19.85;;;9.88;;
39750;SDS011;37579;51.074;17.004;2023-10-19T08:12:48;20.77;;;10.65;;
39750;SDS011;37579;51.074;17.004;2023-10-19T08:15:15;22.42;;;10.45;;
39750;SDS011;37579;51.074;17.004;2023-10-19T08:17:42;20.73;;;10.57;;
39750;SDS011;37579;51.074;17.004;2023-10-19T08:20:09;20.23;;;10.55;;
39750;SDS011;37579;51.074;17.004;2023-10-19T08:22:44;20.15;;;10.60;;
39750;SDS011;37579;51.074;17.004;2023-10-19T08:25:12;19.13;;;10.95;;
39750;SDS011;37579;51.074;17.004;2023-10-19T08:27:40;19.02;;;10.15;;
39750;SDS011;37579;51.074;17.004;2023-10-19T08:30:10;18.02;;;9.48;;
39750;SDS011;37579;51.074;17.004;2023-10-19T08:32:38;19.30;;;10.63;;
39750;SDS011;37579;51.074;17.004;2023-10-19T08:35:04;17.50;;;9.88;;
39750;SDS011;37579;51.074;17.004;2023-10-19T08:37:30;17.58;;;10.05;;
39750;SDS011;37579;51.074;17.004;2023-10-19T08:39:57;19.20;;;9.85;;
39750;SDS011;37579;51.074;17.004;2023-10-19T08:42:23;18.90;;;9.70;;
39750;SDS011;37579;51.074;17.004;2023-10-19T08:44:49;18.20;;;9.93;;
39750;SDS011;37579;51.074;17.004;2023-10-19T08:47:16;17.50;;;9.77;;
39750;SDS011;37579;51.074;17.004;2023-10-19T08:49:42;16.23;;;9.27;;
39750;SDS011;37579;51.074;17.004;2023-10-19T08:52:08;15.65;;;9.30;;
39750;SDS011;37579;51.074;17.004;2023-10-19T08:54:35;16.92;;;9.60;;
39750;SDS011;37579;51.074;17.004;2023-10-19T08:57:02;15.32;;;8.90;;
39750;SDS011;37579;51.074;17.004;2023-10-19T08:59:29;16.08;;;8.90;;
39750;SDS011;37579;51.074;17.004;2023-10-19T09:02:00;14.15;;;8.50;;
39750;SDS011;37579;51.074;17.004;2023-10-19T09:04:27;15.32;;;8.60;;
39750;SDS011;37579;51.074;17.004;2023-10-19T09:06:53;14.35;;;8.88;;
39750;SDS011;37579;51.074;17.004;2023-10-19T09:09:20;16.92;;;8.57;;
39750;SDS011;37579;51.074;17.004;2023-10-19T09:11:49;17.02;;;8.57;;
39750;SDS011;37579;51.074;17.004;2023-10-19T09:14:15;14.85;;;8.88;;
39750;SDS011;37579;51.074;17.004;2023-10-19T09:16:55;12.55;;;7.95;;
39750;SDS011;37579;51.074;17.004;2023-10-19T09:19:35;12.88;;;7.43;;
39750;SDS011;37579;51.074;17.004;2023-10-19T09:22:01;12.82;;;8.10;;
39750;SDS011;37579;51.074;17.004;2023-10-19T09:24:35;10.80;;;7.25;;
39750;SDS011;37579;51.074;17.004;2023-10-19T09:27:05;13.20;;;7.22;;
39750;SDS011;37579;51.074;17.004;2023-10-19T09:29:33;10.13;;;7.07;;
39750;SDS011;37579;51.074;17.004;2023-10-19T09:31:59;9.48;;;6.38;;
39750;SDS011;37579;51.074;17.004;2023-10-19T09:34:29;10.60;;;7.18;;
39750;SDS011;37579;51.074;17.004;2023-10-19T09:36:59;11.30;;;7.50;;
39750;SDS011;37579;51.074;17.004;2023-10-19T09:39:31;10.45;;;6.97;;
39750;SDS011;37579;51.074;17.004;2023-10-19T09:42:00;10.98;;;7.65;;
39750;SDS011;37579;51.074;17.004;2023-10-19T09:44:32;11.38;;;6.65;;
39750;SDS011;37579;51.074;17.004;2023-10-19T09:46:59;11.02;;;7.10;;
39750;SDS011;37579;51.074;17.004;2023-10-19T09:49:28;12.40;;;7.20;;
39750;SDS011;37579;51.074;17.004;2023-10-19T09:51:54;12.40;;;7.10;;
39750;SDS011;37579;51.074;17.004;2023-10-19T09:54:22;10.52;;;6.13;;
39750;SDS011;37579;51.074;17.004;2023-10-19T09:56:54;10.57;;;6.65;;
39750;SDS011;37579;51.074;17.004;2023-10-19T09:59:29;10.32;;;6.65;;
39750;SDS011;37579;51.074;17.004;2023-10-19T10:02:07;12.15;;;6.65;;
39750;SDS011;37579;51.074;17.004;2023-10-19T10:04:34;10.20;;;5.97;;
39750;SDS011;37579;51.074;17.004;2023-10-19T10:07:01;9.70;;;5.80;;
39750;SDS011;37579;51.074;17.004;2023-10-19T10:09:30;9.55;;;6.03;;
39750;SDS011;37579;51.074;17.004;2023-10-19T10:12:15;9.73;;;6.20;;
39750;SDS011;37579;51.074;17.004;2023-10-19T10:14:44;11.07;;;6.10;;
39750;SDS011;37579;51.074;17.004;2023-10-19T10:17:18;9.18;;;5.78;;
39750;SDS011;37579;51.074;17.004;2023-10-19T10:19:44;8.77;;;5.10;;
39750;SDS011;37579;51.074;17.004;2023-10-19T10:22:10;7.45;;;4.90;;
39750;SDS011;37579;51.074;17.004;2023-10-19T10:24:43;8.18;;;5.20;;
39750;SDS011;37579;51.074;17.004;2023-10-19T10:27:09;9.27;;;5.75;;
39750;SDS011;37579;51.074;17.004;2023-10-19T10:29:57;9.45;;;5.40;;
39750;SDS011;37579;51.074;17.004;2023-10-19T10:35:08;8.88;;;5.13;;
39750;SDS011;37579;51.074;17.004;2023-10-19T10:37:38;9.02;;;5.18;;
39750;SDS011;37579;51.074;17.004;2023-10-19T10:40:05;7.88;;;5.15;;
39750;SDS011;37579;51.074;17.004;2023-10-19T10:42:32;7.25;;;5.45;;
39750;SDS011;37579;51.074;17.004;2023-10-19T10:44:59;9.25;;;5.32;;
39750;SDS011;37579;51.074;17.004;2023-10-19T10:47:27;7.07;;;4.80;;
39750;SDS011;37579;51.074;17.004;2023-10-19T10:49:56;6.65;;;4.65;;
39750;SDS011;37579;51.074;17.004;2023-10-19T10:52:29;8.38;;;4.82;;
39750;SDS011;37579;51.074;17.004;2023-10-19T10:54:57;8.50;;;5.32;;
39750;SDS011;37579;51.074;17.004;2023-10-19T10:57:29;9.68;;;4.93;;
39750;SDS011;37579;51.074;17.004;2023-10-19T11:00:03;8.80;;;5.30;;
39750;SDS011;37579;51.074;17.004;2023-10-19T11:02:32;6.35;;;4.50;;
39750;SDS011;37579;51.074;17.004;2023-10-19T11:04:58;6.50;;;4.53;;
39750;SDS011;37579;51.074;17.004;2023-10-19T11:07:25;7.13;;;4.38;;
39750;SDS011;37579;51.074;17.004;2023-10-19T11:09:51;12.25;;;8.50;;
39750;SDS011;37579;51.074;17.004;2023-10-19T11:12:17;10.95;;;6.97;;
39750;SDS011;37579;51.074;17.004;2023-10-19T11:14:57;10.45;;;5.45;;
39750;SDS011;37579;51.074;17.004;2023-10-19T11:17:41;7.68;;;5.25;;
39750;SDS011;37579;51.074;17.004;2023-10-19T11:20:08;7.00;;;4.75;;
39750;SDS011;37579;51.074;17.004;2023-10-19T11:22:48;7.97;;;4.93;;
39750;SDS011;37579;51.074;17.004;2023-10-19T11:25:25;9.55;;;5.05;;
39750;SDS011;37579;51.074;17.004;2023-10-19T11:27:55;7.80;;;4.93;;
39750;SDS011;37579;51.074;17.004;2023-10-19T11:30:29;7.72;;;4.63;;
39750;SDS011;37579;51.074;17.004;2023-10-19T11:32:59;7.13;;;4.88;;
39750;SDS011;37579;51.074;17.004;2023-10-19T11:35:29;7.15;;;5.03;;
39750;SDS011;37579;51.074;17.004;2023-10-19T11:37:56;8.80;;;5.00;;
39750;SDS011;37579;51.074;17.004;2023-10-19T11:40:24;8.40;;;6.03;;
39750;SDS011;37579;51.074;17.004;2023-10-19T11:42:50;8.00;;;5.45;;
39750;SDS011;37579;51.074;17.004;2023-10-19T11:45:17;8.20;;;5.32;;
39750;SDS011;37579;51.074;17.004;2023-10-19T11:47:43;8.23;;;5.07;;
39750;SDS011;37579;51.074;17.004;2023-10-19T11:50:10;8.20;;;5.28;;
39750;SDS011;37579;51.074;17.004;2023-10-19T11:52:44;8.85;;;5.45;;
39750;SDS011;37579;51.074;17.004;2023-10-19T11:55:14;8.23;;;4.78;;
39750;SDS011;37579;51.074;17.004;2023-10-19T11:57:43;6.65;;;4.22;;
39750;SDS011;37579;51.074;17.004;2023-10-19T12:00:10;9.10;;;5.13;;
39750;SDS011;37579;51.074;17.004;2023-10-19T12:02:39;7.30;;;4.93;;
39750;SDS011;37579;51.074;17.004;2023-10-19T12:05:09;7.05;;;4.70;;
39750;SDS011;37579;51.074;17.004;2023-10-19T12:07:36;7.03;;;4.55;;
39750;SDS011;37579;51.074;17.004;2023-10-19T12:10:03;7.40;;;4.63;;
39750;SDS011;37579;51.074;17.004;2023-10-19T12:12:29;8.80;;;4.78;;
39750;SDS011;37579;51.074;17.004;2023-10-19T12:14:56;9.93;;;4.57;;
39750;SDS011;37579;51.074;17.004;2023-10-19T12:17:23;16.48;;;6.20;;
39750;SDS011;37579;51.074;17.004;2023-10-19T12:19:51;17.20;;;6.30;;
39750;SDS011;37579;51.074;17.004;2023-10-19T12:22:17;16.83;;;5.97;;
39750;SDS011;37579;51.074;17.004;2023-10-19T12:24:44;13.88;;;5.40;;
39750;SDS011;37579;51.074;17.004;2023-10-19T12:27:10;14.02;;;6.43;;
39750;SDS011;37579;51.074;17.004;2023-10-19T12:29:38;18.48;;;7.35;;
39750;SDS011;37579;51.074;17.004;2023-10-19T12:32:05;17.35;;;6.93;;
39750;SDS011;37579;51.074;17.004;2023-10-19T12:34:31;14.82;;;6.53;;
39750;SDS011;37579;51.074;17.004;2023-10-19T12:36:58;18.27;;;7.13;;
39750;SDS011;37579;51.074;17.004;2023-10-19T12:39:24;18.63;;;7.82;;
39750;SDS011;37579;51.074;17.004;2023-10-19T12:42:09;22.25;;;7.20;;
39750;SDS011;37579;51.074;17.004;2023-10-19T12:44:35;22.33;;;8.13;;
39750;SDS011;37579;51.074;17.004;2023-10-19T12:47:05;15.48;;;6.82;;
39750;SDS011;37579;51.074;17.004;2023-10-19T12:49:38;16.02;;;6.85;;
39750;SDS011;37579;51.074;17.004;2023-10-19T12:52:05;17.88;;;6.80;;
39750;SDS011;37579;51.074;17.004;2023-10-19T12:54:35;14.05;;;6.55;;
39750;SDS011;37579;51.074;17.004;2023-10-19T12:57:02;16.80;;;7.03;;
39750;SDS011;37579;51.074;17.004;2023-10-19T13:02:04;15.10;;;6.00;;
39750;SDS011;37579;51.074;17.004;2023-10-19T13:04:30;17.25;;;7.00;;
39750;SDS011;37579;51.074;17.004;2023-10-19T13:06:56;15.65;;;6.60;;
39750;SDS011;37579;51.074;17.004;2023-10-19T13:09:24;11.82;;;6.25;;
39750;SDS011;37579;51.074;17.004;2023-10-19T13:11:56;14.65;;;6.18;;
39750;SDS011;37579;51.074;17.004;2023-10-19T13:14:22;12.50;;;6.07;;
39750;SDS011;37579;51.074;17.004;2023-10-19T13:16:49;12.95;;;5.53;;
39750;SDS011;37579;51.074;17.004;2023-10-19T13:19:17;12.95;;;5.68;;
39750;SDS011;37579;51.074;17.004;2023-10-19T13:21:46;12.18;;;6.13;;
39750;SDS011;37579;51.074;17.004;2023-10-19T13:24:14;11.35;;;5.68;;
39750;SDS011;37579;51.074;17.004;2023-10-19T13:26:41;13.55;;;5.60;;
39750;SDS011;37579;51.074;17.004;2023-10-19T13:29:12;12.32;;;5.78;;
39750;SDS011;37579;51.074;17.004;2023-10-19T13:31:38;13.68;;;6.13;;
39750;SDS011;37579;51.074;17.004;2023-10-19T13:34:04;12.95;;;6.88;;
39750;SDS011;37579;51.074;17.004;2023-10-19T13:36:35;14.55;;;6.30;;
39750;SDS011;37579;51.074;17.004;2023-10-19T13:39:02;12.68;;;5.95;;
39750;SDS011;37579;51.074;17.004;2023-10-19T13:41:31;11.50;;;5.13;;
39750;SDS011;37579;51.074;17.004;2023-10-19T13:43:57;12.63;;;5.85;;
39750;SDS011;37579;51.074;17.004;2023-10-19T13:46:23;9.90;;;5.10;;
39750;SDS011;37579;51.074;17.004;2023-10-19T13:48:50;10.70;;;5.50;;
39750;SDS011;37579;51.074;17.004;2023-10-19T13:51:16;10.73;;;5.20;;
39750;SDS011;37579;51.074;17.004;2023-10-19T13:53:44;11.80;;;5.43;;
39750;SDS011;37579;51.074;17.004;2023-10-19T13:56:10;12.57;;;5.35;;
39750;SDS011;37579;51.074;17.004;2023-10-19T13:58:37;10.18;;;5.03;;
39750;SDS011;37579;51.074;17.004;2023-10-19T14:01:10;11.25;;;4.80;;
39750;SDS011;37579;51.074;17.004;2023-10-19T14:03:39;11.25;;;5.10;;
39750;SDS011;37579;51.074;17.004;2023-10-19T14:06:05;15.60;;;4.97;;
39750;SDS011;37579;51.074;17.004;2023-10-19T14:08:31;8.85;;;5.00;;
39750;SDS011;37579;51.074;17.004;2023-10-19T14:11:01;8.48;;;4.60;;
39750;SDS011;37579;51.074;17.004;2023-10-19T14:13:28;10.68;;;5.07;;
39750;SDS011;37579;51.074;17.004;2023-10-19T14:15:54;10.23;;;4.85;;
39750;SDS011;37579;51.074;17.004;2023-10-19T14:18:21;7.93;;;4.55;;
39750;SDS011;37579;51.074;17.004;2023-10-19T14:20:47;10.70;;;4.78;;
39750;SDS011;37579;51.074;17.004;2023-10-19T14:23:13;10.85;;;4.90;;
39750;SDS011;37579;51.074;17.004;2023-10-19T14:25:39;11.48;;;5.00;;
39750;SDS011;37579;51.074;17.004;2023-10-19T14:28:07;9.88;;;4.85;;
39750;SDS011;37579;51.074;17.004;2023-10-19T14:30:34;14.40;;;5.03;;
39750;SDS011;37579;51.074;17.004;2023-10-19T14:33:01;9.45;;;4.70;;
39750;SDS011;37579;51.074;17.004;2023-10-19T14:35:27;7.90;;;4.90;;
39750;SDS011;37579;51.074;17.004;2023-10-19T14:37:54;10.88;;;4.90;;
39750;SDS011;37579;51.074;17.004;2023-10-19T14:40:24;12.50;;;4.95;;
39750;SDS011;37579;51.074;17.004;2023-10-19T14:42:51;10.48;;;5.00;;
39750;SDS011;37579;51.074;17.004;2023-10-19T14:45:19;9.35;;;5.15;;
39750;SDS011;37579;51.074;17.004;2023-10-19T14:47:46;10.63;;;5.20;;
39750;SDS011;37579;51.074;17.004;2023-10-19T14:50:13;8.95;;;4.95;;